Time;durP1;ratioP1;P1;durP2;ratioP2;P2;SDS_P1;SDS_P2;PMS_P1;PMS_P2;Temp;Humidity;BMP_temperature;BMP_pressure;BME280_temperature;BME280_humidity;BME280_pressure;Samples;Min_cycle;Max_cycle;Signal;HPM_P1;HPM_P2
2022/08/29 00:01:45;;;;;;;8.98;5.20;;;;;;;23.59;60.48;98106.94;5072957;28;20176;-58
2022/08/29 00:04:11;;;;;;;11.70;5.47;;;;;;;23.60;60.06;98105.94;5072903;28;20165;-57
2022/08/29 00:06:36;;;;;;;11.95;5.22;;;;;;;23.62;60.04;98106.53;5072532;28;20179;-57
2022/08/29 00:09:02;;;;;;;10.50;5.00;;;;;;;23.56;61.08;98112.59;5073365;28;20168;-57
2022/08/29 00:11:28;;;;;;;5.68;4.97;;;;;;;23.51;60.83;98107.06;5072538;28;20173;-57
2022/08/29 00:13:53;;;;;;;8.18;5.07;;;;;;;23.39;60.52;98100.69;5072459;28;20568;-58
2022/08/29 00:16:18;;;;;;;12.73;5.30;;;;;;;23.35;62.48;98104.72;5072925;28;20169;-58
2022/08/29 00:18:44;;;;;;;8.25;5.05;;;;;;;23.39;61.93;98098.06;5072657;28;20233;-58
2022/08/29 00:21:09;;;;;;;8.57;5.55;;;;;;;23.41;61.88;98103.94;5072316;28;20194;-58
2022/08/29 00:23:35;;;;;;;8.45;4.93;;;;;;;23.41;61.04;98115.34;5072877;28;20180;-58
2022/08/29 00:26:00;;;;;;;8.55;5.22;;;;;;;23.35;61.51;98112.63;5072557;28;20230;-57
2022/08/29 00:28:26;;;;;;;9.02;5.35;;;;;;;23.35;61.51;98110.81;5072242;28;20535;-57
2022/08/29 00:30:51;;;;;;;8.95;4.63;;;;;;;23.28;61.19;98106.50;5072259;28;20164;-57
2022/08/29 00:33:17;;;;;;;7.28;5.13;;;;;;;23.31;61.71;98104.28;5072231;28;20649;-57
2022/08/29 00:35:44;;;;;;;6.00;4.93;;;;;;;23.29;61.24;98114.25;5072191;28;20645;-57
2022/08/29 00:38:13;;;;;;;12.25;5.53;;;;;;;23.33;61.10;98106.75;5072111;28;20172;-58
2022/08/29 00:40:48;;;;;;;10.13;4.93;;;;;;;23.33;61.38;98112.03;5072010;28;20192;-57
2022/08/29 00:43:14;;;;;;;11.85;5.18;;;;;;;23.25;61.40;98096.34;5072382;28;20199;-57
2022/08/29 00:45:49;;;;;;;9.85;4.88;;;;;;;23.28;61.15;98109.13;5072081;28;20199;-58
2022/08/29 00:48:18;;;;;;;10.43;5.13;;;;;;;23.26;61.59;98108.53;5072331;28;20160;-58
2022/08/29 00:50:52;;;;;;;7.68;4.72;;;;;;;23.26;61.98;98116.44;5072011;28;20709;-57
2022/08/29 00:53:23;;;;;;;7.68;5.38;;;;;;;23.17;61.96;98102.56;5071793;28;20719;-58
2022/08/29 00:55:49;;;;;;;9.52;5.00;;;;;;;23.08;61.83;98102.88;5071970;28;20165;-58
2022/08/29 00:58:39;;;;;;;11.98;5.40;;;;;;;23.12;62.44;98114.66;5072122;28;20672;-57
2022/08/29 01:01:05;;;;;;;11.20;5.28;;;;;;;23.12;62.12;98109.38;5072410;28;20657;-57
2022/08/29 01:03:32;;;;;;;10.07;5.20;;;;;;;23.14;62.25;98107.38;5072395;28;20183;-57
2022/08/29 01:05:59;;;;;;;9.48;5.30;;;;;;;22.98;62.69;98090.00;5071825;28;20184;-57
2022/08/29 01:08:24;;;;;;;7.25;4.65;;;;;;;23.13;62.52;98103.91;5072100;28;20188;-57
2022/08/29 01:13:40;;;;;;;10.38;5.18;;;;;;;23.12;62.61;98106.75;5072670;28;20164;-57
2022/08/29 01:16:07;;;;;;;7.97;5.32;;;;;;;23.14;62.61;98110.81;5072059;28;20168;-57
2022/08/29 01:18:35;;;;;;;11.48;5.95;;;;;;;23.12;62.65;98110.22;5071741;28;20183;-57
2022/08/29 01:21:18;;;;;;;20.40;5.68;;;;;;;23.09;62.54;98107.13;5071688;28;20197;-57
2022/08/29 01:24:07;;;;;;;8.50;5.35;;;;;;;23.12;62.31;98109.38;5071995;28;20168;-58
2022/08/29 01:26:33;;;;;;;9.00;4.90;;;;;;;23.15;61.75;98115.13;5071518;28;20184;-57
2022/08/29 01:28:59;;;;;;;13.38;5.93;;;;;;;23.15;62.30;98115.13;5071521;28;20566;-57
2022/08/29 01:31:27;;;;;;;12.95;5.07;;;;;;;23.14;62.38;98099.47;5071554;28;20283;-58
2022/08/29 01:33:58;;;;;;;9.40;5.15;;;;;;;23.12;62.26;98093.53;5071519;28;20176;-58
2022/08/29 01:36:25;;;;;;;13.60;5.30;;;;;;;23.15;62.33;98109.84;5071497;28;20267;-57
2022/08/29 01:38:51;;;;;;;12.88;5.43;;;;;;;23.05;62.05;98097.97;5071837;28;20251;-57
2022/08/29 01:41:19;;;;;;;8.45;5.30;;;;;;;23.06;62.52;98112.78;5071394;28;20655;-58
2022/08/29 01:43:48;;;;;;;7.90;5.00;;;;;;;23.08;62.60;98113.44;5071736;28;20190;-57
2022/08/29 01:46:15;;;;;;;10.23;5.80;;;;;;;23.04;62.94;98107.72;5071746;28;20212;-57
2022/08/29 01:48:43;;;;;;;9.95;5.43;;;;;;;22.90;63.74;98105.16;5071700;28;20282;-58
2022/08/29 01:51:10;;;;;;;8.98;5.45;;;;;;;22.77;64.27;98099.72;5071393;28;20176;-57
2022/08/29 01:53:36;;;;;;;10.55;4.78;;;;;;;22.79;64.17;98103.00;5071190;28;20215;-58
2022/08/29 01:56:25;;;;;;;10.93;5.68;;;;;;;22.82;64.23;98105.25;5071381;28;20173;-58
2022/08/29 01:58:52;;;;;;;8.25;5.20;;;;;;;22.83;64.08;98109.53;5071351;28;20650;-58
2022/08/29 02:01:21;;;;;;;11.80;5.22;;;;;;;22.82;64.04;98111.38;5071268;28;20227;-57
2022/08/29 02:03:47;;;;;;;8.18;4.80;;;;;;;22.72;64.07;98102.16;5071872;28;20176;-57
2022/08/29 02:06:13;;;;;;;10.13;5.15;;;;;;;;;;5071493;28;20259;-57
2022/08/29 02:08:41;;;;;;;9.60;5.55;;;;;;;22.81;63.83;98111.53;5071512;28;20656;-57
2022/08/29 02:11:09;;;;;;;9.48;5.00;;;;;;;22.71;64.05;98100.47;5074120;28;20602;-58
2022/08/29 02:13:54;;;;;;;12.45;5.13;;;;;;;22.73;64.11;98103.78;5074805;28;20583;-58
2022/08/29 02:16:20;;;;;;;6.63;4.85;;;;;;;22.89;63.83;98119.34;5075070;28;20621;-58
2022/08/29 02:18:46;;;;;;;10.57;5.53;;;;;;;22.87;63.75;98110.78;5074711;28;20300;-57
2022/08/29 02:21:14;;;;;;;9.73;5.03;;;;;;;22.90;63.57;98108.59;5075173;28;20287;-57
2022/08/29 02:23:40;;;;;;;8.98;5.75;;;;;;;22.95;63.44;98102.75;5074638;28;20172;-57
2022/08/29 02:26:06;;;;;;;9.55;5.32;;;;;;;22.87;63.70;98113.44;5074582;28;20672;-57
2022/08/29 02:28:33;;;;;;;13.00;5.25;;;;;;;22.88;63.70;98115.06;5074562;28;20192;-57
2022/08/29 02:30:58;;;;;;;9.15;5.28;;;;;;;22.82;63.62;98116.66;5074750;28;20173;-58
2022/08/29 02:33:25;;;;;;;10.85;5.47;;;;;;;22.83;63.60;98120.91;5074729;28;20559;-58
2022/08/29 02:35:52;;;;;;;7.95;5.35;;;;;;;22.86;63.60;98131.09;5074408;28;20180;-57
2022/08/29 02:38:18;;;;;;;10.82;5.47;;;;;;;22.73;63.45;98109.03;5074619;28;20187;-58
2022/08/29 02:40:46;;;;;;;7.28;5.30;;;;;;;22.82;63.69;98123.72;5074213;28;20200;-58
2022/08/29 02:43:11;;;;;;;8.48;5.32;;;;;;;22.64;64.32;98110.16;5074272;28;20700;-58
2022/08/29 02:45:39;;;;;;;14.45;5.60;;;;;;;22.71;63.98;98122.41;5074239;28;20306;-57
2022/08/29 02:48:05;;;;;;;8.95;4.95;;;;;;;22.71;64.37;98124.22;5074726;28;20176;-58
2022/08/29 02:50:31;;;;;;;9.98;5.38;;;;;;;22.69;64.15;98121.81;5074136;28;20194;-58
2022/08/29 02:52:57;;;;;;;10.48;4.90;;;;;;;22.64;64.17;98110.16;5073808;28;20314;-58
2022/08/29 02:55:23;;;;;;;8.13;5.13;;;;;;;22.65;64.33;98122.34;5074277;28;20173;-58
2022/08/29 02:57:48;;;;;;;11.65;5.07;;;;;;;22.70;63.99;98136.63;5074543;28;20176;-57
2022/08/29 03:00:20;;;;;;;13.77;5.40;;;;;;;22.75;63.95;98128.13;5074159;28;20687;-57
2022/08/29 03:02:46;;;;;;;10.57;5.07;;;;;;;22.73;63.94;98127.50;5074198;28;20192;-57
2022/08/29 03:05:13;;;;;;;7.90;5.53;;;;;;;22.67;64.04;98129.06;5073753;28;20215;-57
2022/08/29 03:07:38;;;;;;;11.45;5.95;;;;;;;22.64;64.22;98125.97;5074042;28;20196;-58
2022/08/29 03:10:06;;;;;;;10.38;5.05;;;;;;;22.65;64.26;98127.63;5074052;28;20168;-57
2022/08/29 03:12:32;;;;;;;9.55;5.20;;;;;;;22.53;64.67;98131.75;5073934;28;20181;-58
2022/08/29 03:14:57;;;;;;;7.93;5.25;;;;;;;22.49;64.26;98126.03;5073644;28;20176;-57
2022/08/29 03:17:23;;;;;;;13.65;5.45;;;;;;;22.51;64.78;98141.69;5073580;28;20533;-58
2022/08/29 03:19:48;;;;;;;10.63;5.65;;;;;;;22.50;64.80;98132.13;5073462;28;20193;-57
2022/08/29 03:22:14;;;;;;;7.20;5.40;;;;;;;22.47;64.84;98141.22;5072946;28;20184;-57
2022/08/29 03:24:40;;;;;;;9.15;5.18;;;;;;;22.40;65.22;98140.31;5073396;28;20176;-57
2022/08/29 03:27:05;;;;;;;13.82;5.82;;;;;;;22.40;65.05;98150.03;5073420;28;20221;-58
2022/08/29 03:29:31;;;;;;;10.35;5.57;;;;;;;22.50;64.58;98143.47;5073290;28;20637;-57
2022/08/29 03:31:57;;;;;;;10.50;5.15;;;;;;;22.53;64.70;98156.31;5073253;28;20188;-57
2022/08/29 03:34:27;;;;;;;9.43;5.50;;;;;;;22.59;64.10;98147.66;5073520;28;20185;-57
2022/08/29 03:36:53;;;;;;;10.48;5.07;;;;;;;22.49;64.46;98143.69;5073506;28;20251;-58
2022/08/29 03:39:18;;;;;;;8.00;5.25;;;;;;;22.47;64.62;98157.06;5073071;28;20173;-57
2022/08/29 03:41:44;;;;;;;9.38;5.55;;;;;;;22.53;64.51;98147.56;5073040;28;20225;-57
2022/08/29 03:44:09;;;;;;;9.15;5.45;;;;;;;22.41;65.02;98149.84;5073049;28;20169;-57
2022/08/29 03:46:36;;;;;;;5.85;5.13;;;;;;;22.46;64.55;98159.88;5072965;28;20294;-57
2022/08/29 03:49:02;;;;;;;11.77;4.90;;;;;;;22.43;64.84;98155.78;5073195;28;20533;-57
2022/08/29 03:51:30;;;;;;;12.23;6.05;;;;;;;22.45;64.61;98152.97;5072902;28;20173;-57
2022/08/29 03:53:56;;;;;;;8.25;5.45;;;;;;;22.40;64.52;98158.78;5072684;28;20716;-57
2022/08/29 03:56:22;;;;;;;5.93;5.18;;;;;;;22.30;65.05;98152.13;5073062;28;20176;-57
2022/08/29 03:58:47;;;;;;;13.95;5.82;;;;;;;22.23;64.79;98138.06;5073319;28;20184;-57
2022/08/29 04:01:15;;;;;;;10.77;5.10;;;;;;;22.33;64.35;98146.50;5072687;28;20214;-58
2022/08/29 04:03:41;;;;;;;9.10;5.28;;;;;;;22.45;64.12;98163.50;5072724;28;20172;-57
2022/08/29 04:06:07;;;;;;;8.65;4.63;;;;;;;22.45;63.67;98137.16;5073196;28;20327;-57
2022/08/29 04:08:33;;;;;;;11.23;4.90;;;;;;;22.59;63.07;98155.56;5072897;28;20271;-57
2022/08/29 04:10:58;;;;;;;10.82;5.45;;;;;;;22.55;63.85;98172.75;5072485;28;20686;-57
2022/08/29 04:13:24;;;;;;;10.38;5.68;;;;;;;22.59;63.76;98176.66;5072799;28;20176;-58
2022/08/29 04:15:50;;;;;;;8.05;4.75;;;;;;;22.54;64.51;98178.22;5072738;28;20180;-58
2022/08/29 04:18:16;;;;;;;8.40;4.78;;;;;;;22.51;64.66;98175.97;5072665;28;20164;-58
2022/08/29 04:20:43;;;;;;;9.32;5.70;;;;;;;22.37;65.26;98174.94;5072340;28;20758;-58
2022/08/29 04:23:11;;;;;;;14.30;5.82;;;;;;;22.36;65.40;98188.31;5072635;28;20172;-58
2022/08/29 04:25:38;;;;;;;8.68;5.32;;;;;;;22.27;65.73;98186.78;5072564;28;20200;-58
2022/08/29 04:28:09;;;;;;;12.90;6.13;;;;;;;22.14;66.09;98176.88;5072293;28;20173;-57
2022/08/29 04:30:37;;;;;;;9.43;5.25;;;;;;;22.23;66.16;98180.25;5072535;28;20229;-58
2022/08/29 04:33:03;;;;;;;13.70;5.45;;;;;;;22.29;65.92;98180.34;5071882;28;20668;-58
2022/08/29 04:35:28;;;;;;;9.30;5.35;;;;;;;22.34;65.73;98185.88;5072216;28;20176;-58
2022/08/29 04:37:54;;;;;;;11.32;5.65;;;;;;;22.36;65.47;98190.94;5072166;28;20176;-58
2022/08/29 04:40:21;;;;;;;10.20;5.47;;;;;;;22.42;65.27;98196.31;5072079;28;20208;-58
2022/08/29 04:42:47;;;;;;;12.40;5.57;;;;;;;22.46;64.90;98196.78;5072085;28;20207;-58
2022/08/29 04:45:17;;;;;;;9.70;4.68;;;;;;;22.60;64.00;98198.59;5072050;28;20200;-58
2022/08/29 04:47:43;;;;;;;8.50;5.65;;;;;;;22.59;64.22;98195.13;5072840;28;20183;-58
2022/08/29 04:50:13;;;;;;;10.23;5.32;;;;;;;22.60;64.66;98198.59;5072271;28;20172;-58
2022/08/29 04:52:39;;;;;;;7.82;4.88;;;;;;;22.66;64.57;98197.84;5053804;28;20574;-58
2022/08/29 04:55:06;;;;;;;8.68;5.18;;;;;;;22.57;64.35;98198.97;5071949;28;20172;-58
2022/08/29 04:57:33;;;;;;;10.98;4.95;;;;;;;22.52;65.04;98191.59;5072232;28;20697;-57
2022/08/29 05:00:00;;;;;;;9.05;5.10;;;;;;;22.50;65.55;98212.06;5071793;28;20220;-58
2022/08/29 05:02:26;;;;;;;9.27;5.22;;;;;;;22.53;65.77;98210.88;5072183;28;20183;-57
2022/08/29 05:04:52;;;;;;;7.82;5.10;;;;;;;22.58;65.84;98211.13;5072127;28;20212;-58
2022/08/29 05:07:20;;;;;;;9.93;4.97;;;;;;;22.72;65.43;98215.56;5072135;28;20255;-58
2022/08/29 05:09:49;;;;;;;13.68;5.63;;;;;;;22.84;64.73;98214.88;5071856;28;20176;-58
2022/08/29 05:12:15;;;;;;;11.52;5.10;;;;;;;22.95;63.93;98217.03;5072360;28;20180;-58
2022/08/29 05:14:41;;;;;;;6.85;5.22;;;;;;;22.85;63.97;98178.78;5071827;28;20172;-58
2022/08/29 05:17:06;;;;;;;10.75;5.32;;;;;;;23.10;63.40;98195.88;5072016;28;20168;-58
2022/08/29 05:19:32;;;;;;;10.25;5.82;;;;;;;23.29;62.93;98211.09;5071671;28;20283;-58
2022/08/29 05:21:57;;;;;;;13.00;4.90;;;;;;;23.32;62.80;98200.19;5072003;28;20266;-58
2022/08/29 05:24:23;;;;;;;6.80;5.10;;;;;;;23.40;62.42;98205.31;5071705;28;20171;-58
2022/08/29 05:26:50;;;;;;;8.35;4.97;;;;;;;23.37;62.12;98192.50;5071699;28;20180;-58
2022/08/29 05:29:15;;;;;;;9.82;5.70;;;;;;;23.45;61.77;98203.75;5072270;28;20177;-58
2022/08/29 05:31:42;;;;;;;11.70;5.35;;;;;;;23.50;62.27;98208.47;5071584;28;20179;-57
2022/08/29 05:34:10;;;;;;;8.70;5.13;;;;;;;23.63;61.52;98208.56;5071616;28;20726;-58
2022/08/29 05:36:35;;;;;;;11.07;4.80;;;;;;;23.72;61.19;98218.00;5072305;28;20188;-57
2022/08/29 05:39:01;;;;;;;8.20;5.07;;;;;;;23.73;61.36;98214.34;5071569;28;20658;-58
2022/08/29 05:41:27;;;;;;;10.63;5.15;;;;;;;23.85;61.00;98222.34;5071689;28;20293;-57
2022/08/29 05:43:54;;;;;;;8.98;5.70;;;;;;;23.93;60.45;98221.41;5071560;28;20255;-57
2022/08/29 05:46:20;;;;;;;8.27;4.80;;;;;;;24.06;60.65;98216.22;5074811;28;20242;-58
2022/08/29 05:48:46;;;;;;;10.75;4.90;;;;;;;23.98;60.41;98193.38;5075167;28;20180;-58
2022/08/29 05:51:17;;;;;;;13.23;5.80;;;;;;;24.23;60.39;98228.94;5075222;28;20169;-58
2022/08/29 05:53:43;;;;;;;11.25;4.90;;;;;;;24.32;60.08;98226.94;5074790;28;20279;-59
2022/08/29 05:56:08;;;;;;;8.93;5.05;;;;;;;24.37;59.98;98222.69;5075456;28;20679;-58
2022/08/29 05:58:34;;;;;;;13.32;5.65;;;;;;;24.48;59.19;98219.50;5075416;28;20164;-58
2022/08/29 06:00:59;;;;;;;8.85;5.20;;;;;;;24.58;58.51;98221.00;5075244;28;20195;-58
2022/08/29 06:03:25;;;;;;;11.02;5.22;;;;;;;24.77;58.15;98229.00;5074954;28;20176;-58
2022/08/29 06:05:51;;;;;;;10.65;5.18;;;;;;;24.90;58.02;98227.22;5074932;28;20165;-58
2022/08/29 06:08:17;;;;;;;12.10;6.38;;;;;;;24.97;57.99;98229.88;5075212;28;20177;-58
2022/08/29 06:10:44;;;;;;;10.55;5.25;;;;;;;25.12;57.61;98235.81;5075131;28;20259;-58
2022/08/29 06:13:10;;;;;;;12.05;5.15;;;;;;;25.29;57.23;98235.28;5075124;28;20226;-58
2022/08/29 06:15:35;;;;;;;9.73;4.90;;;;;;;25.26;56.95;98221.63;5074794;28;20180;-58
2022/08/29 06:18:01;;;;;;;16.83;5.00;;;;;;;25.41;56.97;98231.00;5056749;28;20181;-58
2022/08/29 06:20:26;;;;;;;8.95;4.78;;;;;;;25.46;56.55;98222.44;5074598;28;20193;-58
2022/08/29 06:22:52;;;;;;;10.55;4.75;;;;;;;25.59;56.72;98228.56;5074688;28;20269;-58
2022/08/29 06:25:17;;;;;;;12.38;5.97;;;;;;;25.76;56.50;98235.09;5074893;28;20256;-58
2022/08/29 06:27:42;;;;;;;22.85;7.40;;;;;;;25.89;56.76;98245.69;5074878;28;20645;-58
2022/08/29 06:30:08;;;;;;;26.50;7.53;;;;;;;26.01;57.10;98244.06;5074492;28;20203;-58
2022/08/29 06:32:34;;;;;;;23.25;8.13;;;;;;;26.14;56.74;98259.16;5074528;28;20179;-58
2022/08/29 06:34:59;;;;;;;26.38;8.10;;;;;;;26.20;56.11;98248.56;5074675;28;20164;-60
2022/08/29 06:37:24;;;;;;;20.52;7.43;;;;;;;26.34;55.72;98254.63;5074435;28;20672;-57
2022/08/29 06:39:50;;;;;;;19.70;6.50;;;;;;;26.45;55.79;98252.16;5074297;28;20330;-57
2022/08/29 06:42:17;;;;;;;20.60;6.95;;;;;;;26.43;54.74;98232.97;5074566;28;20165;-58
2022/08/29 06:44:44;;;;;;;16.67;6.88;;;;;;;26.66;54.43;98259.06;5074505;28;20317;-56
2022/08/29 06:47:09;;;;;;;16.05;6.82;;;;;;;26.72;53.84;98247.59;5074277;28;20175;-57
2022/08/29 06:49:34;;;;;;;18.42;7.05;;;;;;;26.85;54.05;98261.66;5074187;28;20168;-57
2022/08/29 06:52:00;;;;;;;25.58;7.38;;;;;;;26.96;53.58;98265.47;5073929;28;20742;-57
2022/08/29 06:54:27;;;;;;;26.08;6.90;;;;;;;27.06;53.51;98265.84;5074273;28;20176;-57
2022/08/29 06:56:53;;;;;;;14.77;6.65;;;;;;;27.11;53.25;98264.16;5073761;28;20183;-57
2022/08/29 06:59:18;;;;;;;17.67;6.53;;;;;;;27.21;52.82;98272.53;5073852;28;20173;-57
2022/08/29 07:01:46;;;;;;;19.50;6.50;;;;;;;27.34;52.01;98269.78;5074214;28;20172;-57
2022/08/29 07:04:12;;;;;;;13.45;6.85;;;;;;;27.43;51.49;98273.81;5074175;28;20185;-57
2022/08/29 07:06:38;;;;;;;14.55;6.57;;;;;;;27.50;51.81;98258.63;5073828;28;20172;-57
2022/08/29 07:09:04;;;;;;;8.82;5.30;;;;;;;27.62;51.60;98262.22;5074093;28;20716;-57
2022/08/29 07:11:31;;;;;;;9.00;5.20;;;;;;;27.72;49.70;98262.56;5073999;28;20172;-57
2022/08/29 07:14:03;;;;;;;9.27;4.70;;;;;;;27.71;49.74;98266.25;5073695;28;20183;-57
2022/08/29 07:16:30;;;;;;;15.38;4.35;;;;;;;27.73;49.61;98260.69;5073604;28;20640;-57
2022/08/29 07:18:55;;;;;;;10.32;4.47;;;;;;;27.80;49.03;98259.66;5073564;28;20176;-57
2022/08/29 07:21:24;;;;;;;13.73;5.07;;;;;;;27.77;49.12;98260.09;5073754;28;20190;-57
2022/08/29 07:23:51;;;;;;;11.68;5.13;;;;;;;27.78;49.92;98253.75;5073516;28;20172;-57
2022/08/29 07:26:19;;;;;;;13.15;5.05;;;;;;;27.83;49.53;98256.56;5073479;28;20237;-57
2022/08/29 07:28:50;;;;;;;11.57;4.90;;;;;;;27.83;49.18;98251.25;5073656;28;20603;-57
2022/08/29 07:31:16;;;;;;;6.22;4.53;;;;;;;27.89;49.80;98253.03;5073367;28;20195;-57
2022/08/29 07:33:42;;;;;;;9.77;4.95;;;;;;;27.92;49.53;98246.47;5073324;28;20605;-57
2022/08/29 07:36:08;;;;;;;9.27;4.90;;;;;;;28.04;49.83;98260.69;5073289;28;20560;-57
2022/08/29 07:38:35;;;;;;;6.32;4.95;;;;;;;28.02;50.21;98246.78;5073215;28;20256;-57
2022/08/29 07:41:13;;;;;;;10.48;5.18;;;;;;;27.99;49.63;98225.94;5073365;28;20189;-57
2022/08/29 07:43:39;;;;;;;7.93;4.35;;;;;;;28.26;49.14;98260.06;5073416;28;20152;-57
2022/08/29 07:46:11;;;;;;;7.78;4.97;;;;;;;28.27;49.71;98255.56;5073359;28;20179;-57
2022/08/29 07:48:38;;;;;;;9.02;4.43;;;;;;;28.42;49.07;98258.69;5073839;28;20172;-57
2022/08/29 07:51:12;;;;;;;9.80;4.88;;;;;;;28.50;49.14;98245.09;5073222;28;20176;-57
2022/08/29 07:53:38;;;;;;;8.88;4.85;;;;;;;28.54;48.82;98240.94;5072769;28;20595;-57
2022/08/29 07:56:10;;;;;;;8.23;4.57;;;;;;;28.60;47.51;98240.03;5072854;28;20164;-57
2022/08/29 07:58:36;;;;;;;12.15;4.97;;;;;;;28.68;47.64;98237.88;5073101;28;20173;-57
2022/08/29 08:01:02;;;;;;;7.70;4.55;;;;;;;28.72;48.32;98244.41;5072721;28;20677;-57
2022/08/29 08:03:29;;;;;;;9.10;4.70;;;;;;;28.78;46.91;98248.00;5072993;28;20191;-57
2022/08/29 08:05:54;;;;;;;11.48;5.15;;;;;;;28.84;45.98;98242.63;5072887;28;20578;-57
2022/08/29 08:08:20;;;;;;;6.32;4.68;;;;;;;28.85;46.11;98236.25;5071970;28;20164;-57
2022/08/29 08:10:46;;;;;;;7.60;4.82;;;;;;;28.96;45.79;98240.84;5072555;28;20264;-57
2022/08/29 08:13:11;;;;;;;9.63;4.90;;;;;;;28.99;45.62;98251.06;5072792;28;20176;-57
2022/08/29 08:15:37;;;;;;;11.43;5.60;;;;;;;29.07;45.96;98253.41;5072760;28;20709;-57
2022/08/29 08:18:03;;;;;;;15.00;5.53;;;;;;;29.17;45.36;98248.38;5072487;28;20242;-57
2022/08/29 08:20:29;;;;;;;11.70;5.63;;;;;;;29.31;45.98;98248.97;5072379;28;20614;-58
2022/08/29 08:22:55;;;;;;;23.17;6.70;;;;;;;29.41;46.56;98252.72;5072663;28;20198;-57
2022/08/29 08:25:22;;;;;;;17.45;6.22;;;;;;;29.49;47.27;98247.06;5072312;28;20661;-57
2022/08/29 08:27:48;;;;;;;14.23;6.22;;;;;;;29.60;46.61;98251.63;5072350;28;20230;-56
2022/08/29 08:30:13;;;;;;;13.77;6.28;;;;;;;29.62;46.31;98244.19;5072253;28;20657;-57
2022/08/29 08:32:39;;;;;;;21.77;7.20;;;;;;;29.65;46.69;98235.75;5072529;28;20168;-57
2022/08/29 08:35:05;;;;;;;14.05;7.05;;;;;;;29.74;46.35;98244.25;5073004;28;20172;-57
2022/08/29 08:37:30;;;;;;;12.45;6.60;;;;;;;29.76;45.33;98245.63;5072445;28;20179;-58
2022/08/29 08:39:57;;;;;;;15.32;6.20;;;;;;;29.76;45.69;98232.28;5072012;28;20200;-57
2022/08/29 08:42:31;;;;;;;14.13;6.85;;;;;;;29.82;45.91;98228.69;5072136;28;20176;-57
2022/08/29 08:44:57;;;;;;;13.02;6.57;;;;;;;29.88;45.49;98235.78;5072077;28;20259;-57
2022/08/29 08:47:27;;;;;;;16.60;6.90;;;;;;;29.88;45.28;98225.09;5072109;28;20196;-57
2022/08/29 08:50:32;;;;;;;15.02;6.47;;;;;;;29.77;44.28;98233.91;5072340;28;20153;-57
2022/08/29 08:53:05;;;;;;;16.27;6.78;;;;;;;29.87;44.34;98234.16;5071452;28;20311;-57
2022/08/29 08:55:49;;;;;;;16.27;6.72;;;;;;;29.95;45.22;98230.31;5072257;28;20532;-57
2022/08/29 08:58:35;;;;;;;22.10;6.55;;;;;;;30.04;44.75;98229.75;5072584;28;20156;-57
2022/08/29 09:01:22;;;;;;;14.98;6.20;;;;;;;30.04;44.65;98219.09;5072096;28;20283;-57
2022/08/29 09:04:25;;;;;;;17.90;8.00;;;;;;;30.12;43.24;98233.94;5072166;28;20161;-58
2022/08/29 09:07:15;;;;;;;15.95;6.72;;;;;;;30.14;42.94;98224.66;5072064;28;20245;-57
2022/08/29 09:09:52;;;;;;;13.77;7.15;;;;;;;30.27;43.42;98235.13;5072360;28;20646;-57
2022/08/29 09:12:34;;;;;;;14.45;6.40;;;;;;;30.31;43.81;98230.91;5072018;28;20559;-57
2022/08/29 09:15:11;;;;;;;12.73;6.35;;;;;;;30.37;43.33;98234.53;5072091;28;20168;-57
2022/08/29 09:17:56;;;;;;;19.40;6.35;;;;;;;30.47;43.09;98226.69;5072050;28;20160;-57
2022/08/29 09:20:27;;;;;;;15.50;6.35;;;;;;;30.52;42.61;98221.47;5075326;28;20617;-57
2022/08/29 09:23:27;;;;;;;16.38;6.65;;;;;;;30.60;42.33;98221.91;5075842;28;20161;-57
2022/08/29 09:25:53;;;;;;;16.88;6.72;;;;;;;30.66;42.28;98229.00;5075775;28;20222;-57
2022/08/29 09:28:19;;;;;;;15.43;5.95;;;;;;;30.66;41.31;98229.00;5075742;28;20165;-57
2022/08/29 09:31:25;;;;;;;14.60;6.93;;;;;;;30.75;41.50;98219.59;5075580;28;20556;-57
2022/08/29 09:33:55;;;;;;;20.77;6.55;;;;;;;30.86;41.44;98225.94;5075914;28;20222;-57
2022/08/29 09:36:41;;;;;;;16.88;6.57;;;;;;;30.91;41.37;98231.38;5075763;28;20179;-60
2022/08/29 09:39:15;;;;;;;11.10;5.68;;;;;;;30.87;41.21;98227.56;5075808;28;20184;-59
2022/08/29 09:41:43;;;;;;;17.98;6.72;;;;;;;30.91;41.86;98224.19;5075320;28;20237;-59
2022/08/29 09:44:17;;;;;;;15.95;6.90;;;;;;;30.90;41.43;98219.88;5075442;28;20179;-59
2022/08/29 09:46:42;;;;;;;19.63;6.38;;;;;;;30.74;40.66;98214.47;5075435;28;20235;-59
2022/08/29 09:49:11;;;;;;;17.70;6.72;;;;;;;30.74;41.35;98220.66;5075317;28;20629;-57
2022/08/29 09:51:39;;;;;;;15.50;6.20;;;;;;;30.69;41.29;98215.19;5075069;28;20688;-57
2022/08/29 09:54:13;;;;;;;16.98;6.50;;;;;;;30.66;41.86;98212.97;5075434;28;20199;-57
2022/08/29 09:56:47;;;;;;;19.85;6.03;;;;;;;30.65;41.53;98203.34;5075179;28;20199;-57
2022/08/29 09:59:20;;;;;;;14.35;6.10;;;;;;;30.72;41.22;98205.91;5075418;28;20167;-57
2022/08/29 10:01:45;;;;;;;16.48;6.47;;;;;;;30.77;40.98;98197.97;5075123;28;20197;-58
2022/08/29 10:04:10;;;;;;;11.98;6.07;;;;;;;30.82;41.48;98198.88;5075290;28;20203;-58
2022/08/29 10:06:39;;;;;;;20.45;7.30;;;;;;;31.03;39.31;98206.25;5074980;28;20610;-58
2022/08/29 10:09:11;;;;;;;12.27;6.18;;;;;;;31.18;39.36;98203.03;5075218;28;20176;-57
2022/08/29 10:11:49;;;;;;;22.35;6.25;;;;;;;31.07;39.58;98204.69;5075223;28;20632;-57
2022/08/29 10:14:39;;;;;;;14.10;6.03;;;;;;;31.08;39.56;98198.28;5075680;28;20169;-57
2022/08/29 10:20:43;;;;;;;16.45;6.13;;;;;;;31.46;38.99;98189.59;5075151;28;20196;-57
2022/08/29 10:23:20;;;;;;;18.42;6.75;;;;;;;31.62;37.91;98189.63;5074983;28;20214;-59
2022/08/29 10:25:46;;;;;;;13.93;5.28;;;;;;;31.82;36.59;98194.53;5074931;28;20165;-58
2022/08/29 10:28:25;;;;;;;19.42;6.18;;;;;;;31.93;36.34;98189.06;5074873;28;20255;-58
2022/08/29 10:31:02;;;;;;;16.83;5.40;;;;;;;31.83;36.69;98172.84;5074217;28;20168;-58
2022/08/29 10:33:46;;;;;;;10.60;5.30;;;;;;;31.88;37.16;98190.88;5074832;28;20164;-57
2022/08/29 10:36:16;;;;;;;14.45;6.07;;;;;;;31.98;36.55;98194.50;5075001;28;20183;-59
2022/08/29 10:38:55;;;;;;;11.68;5.90;;;;;;;32.01;36.68;98185.94;5074724;28;20598;-58
2022/08/29 10:41:27;;;;;;;15.20;6.13;;;;;;;32.09;37.09;98182.88;5074605;28;20641;-58
2022/08/29 10:44:25;;;;;;;16.33;6.20;;;;;;;32.26;36.47;98174.81;5074564;28;20611;-58
2022/08/29 10:47:12;;;;;;;11.80;5.80;;;;;;;32.53;35.88;98173.00;5067144;28;20192;-59
2022/08/29 10:50:13;;;;;;;14.05;5.40;;;;;;;32.58;35.98;98173.09;5074516;28;20294;-58
2022/08/29 10:52:52;;;;;;;13.60;5.72;;;;;;;32.73;35.57;98174.06;5070012;28;20717;-58
2022/08/29 10:55:48;;;;;;;15.40;6.18;;;;;;;32.68;36.23;98167.81;5074345;28;20195;-59
2022/08/29 10:58:27;;;;;;;14.43;5.85;;;;;;;32.57;37.06;98160.72;5074257;28;20165;-58
2022/08/29 11:01:01;;;;;;;14.52;6.18;;;;;;;32.51;37.27;98159.03;5074518;28;20192;-58
2022/08/29 11:03:48;;;;;;;13.05;6.05;;;;;;;32.54;36.57;98164.72;5074240;28;20638;-58
2022/08/29 11:06:28;;;;;;;18.75;6.90;;;;;;;32.57;37.31;98161.53;5074067;28;20160;-58
2022/08/29 11:09:22;;;;;;;12.30;5.63;;;;;;;32.60;38.54;98153.00;5074126;28;20188;-58
2022/08/29 11:12:18;;;;;;;17.52;5.78;;;;;;;32.46;39.10;98154.44;5074349;28;20226;-58
2022/08/29 11:15:06;;;;;;;15.52;6.10;;;;;;;32.30;39.71;98144.59;5072446;28;20322;-58
2022/08/29 11:17:36;;;;;;;15.23;6.72;;;;;;;32.02;40.90;98144.75;5073988;28;20168;-58
2022/08/29 11:20:11;;;;;;;11.07;6.32;;;;;;;31.90;41.09;98145.91;5074148;28;20184;-58
2022/08/29 11:22:45;;;;;;;14.10;6.30;;;;;;;31.88;40.52;98138.13;5073912;28;20156;-58
2022/08/29 11:25:17;;;;;;;17.83;6.40;;;;;;;31.67;41.42;98130.84;5073540;28;20217;-58
2022/08/29 11:27:57;;;;;;;15.40;6.22;;;;;;;31.53;41.48;98118.84;5073716;28;20176;-58
2022/08/29 11:30:37;;;;;;;10.50;5.47;;;;;;;31.39;41.96;98114.06;5073445;28;20160;-58
2022/08/29 11:33:14;;;;;;;13.70;6.60;;;;;;;31.38;41.65;98126.66;5073713;28;20168;-58
2022/08/29 11:35:43;;;;;;;14.55;6.00;;;;;;;31.44;42.75;98120.31;5073544;28;20267;-58
2022/08/29 11:38:34;;;;;;;8.93;6.10;;;;;;;31.48;42.00;98117.97;5073234;28;20254;-58
2022/08/29 11:41:34;;;;;;;15.30;6.18;;;;;;;31.50;41.64;98116.69;5073380;28;20665;-58
2022/08/29 11:44:27;;;;;;;12.00;6.30;;;;;;;31.35;42.07;98118.31;5046281;28;20196;-58
2022/08/29 11:46:53;;;;;;;14.43;5.72;;;;;;;31.40;41.70;98111.16;5073619;28;20226;-58
2022/08/29 11:49:25;;;;;;;9.18;5.93;;;;;;;31.53;42.33;98110.81;5073283;28;20188;-57